sensor_id;sensor_type;location;lat;lon;timestamp;P1;durP1;ratioP1;P2;durP2;ratioP2
23044;SDS011;11690;51.716;23.066;2023-05-10T00:00:59;2.17;;;1.58;;
23044;SDS011;11690;51.716;23.066;2023-05-10T00:03:26;2.55;;;1.52;;
23044;SDS011;11690;51.716;23.066;2023-05-10T00:05:53;3.55;;;1.13;;
23044;SDS011;11690;51.716;23.066;2023-05-10T00:08:20;3.65;;;1.80;;
23044;SDS011;11690;51.716;23.066;2023-05-10T00:10:47;1.60;;;1.15;;
23044;SDS011;11690;51.716;23.066;2023-05-10T00:13:15;3.45;;;1.73;;
23044;SDS011;11690;51.716;23.066;2023-05-10T00:15:42;2.05;;;1.50;;
23044;SDS011;11690;51.716;23.066;2023-05-10T00:18:09;2.80;;;1.50;;
23044;SDS011;11690;51.716;23.066;2023-05-10T00:20:36;2.60;;;1.73;;
23044;SDS011;11690;51.716;23.066;2023-05-10T00:23:04;3.53;;;2.17;;
23044;SDS011;11690;51.716;23.066;2023-05-10T00:25:31;3.22;;;2.13;;
23044;SDS011;11690;51.716;23.066;2023-05-10T00:27:58;2.60;;;2.15;;
23044;SDS011;11690;51.716;23.066;2023-05-10T00:30:27;2.53;;;1.98;;
23044;SDS011;11690;51.716;23.066;2023-05-10T00:32:55;7.13;;;5.00;;
23044;SDS011;11690;51.716;23.066;2023-05-10T00:35:22;64.10;;;15.00;;
23044;SDS011;11690;51.716;23.066;2023-05-10T00:37:49;49.45;;;12.48;;
23044;SDS011;11690;51.716;23.066;2023-05-10T00:40:16;15.07;;;6.40;;
23044;SDS011;11690;51.716;23.066;2023-05-10T00:42:48;9.10;;;4.13;;
23044;SDS011;11690;51.716;23.066;2023-05-10T00:45:16;6.07;;;2.60;;
23044;SDS011;11690;51.716;23.066;2023-05-10T00:47:43;3.95;;;2.10;;
23044;SDS011;11690;51.716;23.066;2023-05-10T00:50:10;6.82;;;4.00;;
23044;SDS011;11690;51.716;23.066;2023-05-10T00:52:38;2.08;;;1.73;;
23044;SDS011;11690;51.716;23.066;2023-05-10T00:55:05;3.88;;;2.70;;
23044;SDS011;11690;51.716;23.066;2023-05-10T00:57:33;5.70;;;2.60;;
23044;SDS011;11690;51.716;23.066;2023-05-10T01:00:01;5.63;;;2.65;;
23044;SDS011;11690;51.716;23.066;2023-05-10T01:02:29;3.50;;;1.92;;
23044;SDS011;11690;51.716;23.066;2023-05-10T01:04:57;1.67;;;1.58;;
23044;SDS011;11690;51.716;23.066;2023-05-10T01:07:24;3.40;;;2.00;;
23044;SDS011;11690;51.716;23.066;2023-05-10T01:09:52;6.07;;;3.00;;
23044;SDS011;11690;51.716;23.066;2023-05-10T01:12:19;9.90;;;5.95;;
23044;SDS011;11690;51.716;23.066;2023-05-10T01:14:47;9.35;;;6.05;;
23044;SDS011;11690;51.716;23.066;2023-05-10T01:17:15;6.82;;;4.35;;
23044;SDS011;11690;51.716;23.066;2023-05-10T01:19:42;3.53;;;2.05;;
23044;SDS011;11690;51.716;23.066;2023-05-10T01:30:29;4.80;;;2.80;;
23044;SDS011;11690;51.716;23.066;2023-05-10T01:36:12;2.20;;;1.55;;
23044;SDS011;11690;51.716;23.066;2023-05-10T01:43:42;2.85;;;1.98;;
23044;SDS011;11690;51.716;23.066;2023-05-10T01:46:40;5.07;;;2.05;;
23044;SDS011;11690;51.716;23.066;2023-05-10T01:49:08;2.22;;;1.60;;
23044;SDS011;11690;51.716;23.066;2023-05-10T01:51:41;2.45;;;2.05;;
23044;SDS011;11690;51.716;23.066;2023-05-10T01:54:13;3.83;;;1.98;;
23044;SDS011;11690;51.716;23.066;2023-05-10T01:56:40;2.47;;;2.03;;
23044;SDS011;11690;51.716;23.066;2023-05-10T01:59:11;3.50;;;2.00;;
23044;SDS011;11690;51.716;23.066;2023-05-10T02:01:40;3.50;;;1.85;;
23044;SDS011;11690;51.716;23.066;2023-05-10T02:04:09;1.60;;;1.50;;
23044;SDS011;11690;51.716;23.066;2023-05-10T02:06:38;2.38;;;1.73;;
23044;SDS011;11690;51.716;23.066;2023-05-10T02:09:06;3.40;;;1.55;;
23044;SDS011;11690;51.716;23.066;2023-05-10T02:11:34;1.98;;;1.80;;
23044;SDS011;11690;51.716;23.066;2023-05-10T02:14:02;2.45;;;1.65;;
23044;SDS011;11690;51.716;23.066;2023-05-10T02:16:29;2.80;;;1.80;;
23044;SDS011;11690;51.716;23.066;2023-05-10T02:18:59;2.22;;;1.70;;
23044;SDS011;11690;51.716;23.066;2023-05-10T02:21:28;5.03;;;1.83;;
23044;SDS011;11690;51.716;23.066;2023-05-10T02:23:56;4.15;;;2.10;;
23044;SDS011;11690;51.716;23.066;2023-05-10T02:26:24;2.53;;;1.65;;
23044;SDS011;11690;51.716;23.066;2023-05-10T02:28:53;2.88;;;1.90;;
23044;SDS011;11690;51.716;23.066;2023-05-10T02:31:20;1.45;;;1.35;;
23044;SDS011;11690;51.716;23.066;2023-05-10T02:33:48;2.47;;;1.90;;
23044;SDS011;11690;51.716;23.066;2023-05-10T02:36:17;4.18;;;2.10;;
23044;SDS011;11690;51.716;23.066;2023-05-10T02:38:45;3.20;;;1.70;;
23044;SDS011;11690;51.716;23.066;2023-05-10T02:41:12;2.00;;;1.77;;
23044;SDS011;11690;51.716;23.066;2023-05-10T02:43:41;2.83;;;1.92;;
23044;SDS011;11690;51.716;23.066;2023-05-10T02:46:08;3.50;;;1.83;;
23044;SDS011;11690;51.716;23.066;2023-05-10T02:48:35;3.38;;;1.80;;
23044;SDS011;11690;51.716;23.066;2023-05-10T02:51:04;3.35;;;1.90;;
23044;SDS011;11690;51.716;23.066;2023-05-10T02:53:33;2.97;;;2.00;;
23044;SDS011;11690;51.716;23.066;2023-05-10T02:56:04;2.35;;;1.75;;
23044;SDS011;11690;51.716;23.066;2023-05-10T02:58:33;4.93;;;2.17;;
23044;SDS011;11690;51.716;23.066;2023-05-10T03:01:00;3.45;;;1.70;;
23044;SDS011;11690;51.716;23.066;2023-05-10T03:03:28;3.65;;;1.73;;
23044;SDS011;11690;51.716;23.066;2023-05-10T03:05:55;3.72;;;1.80;;
23044;SDS011;11690;51.716;23.066;2023-05-10T03:08:24;3.53;;;2.30;;
23044;SDS011;11690;51.716;23.066;2023-05-10T03:14:10;3.00;;;1.60;;
23044;SDS011;11690;51.716;23.066;2023-05-10T03:16:47;2.08;;;1.75;;
23044;SDS011;11690;51.716;23.066;2023-05-10T03:19:27;2.88;;;1.65;;
23044;SDS011;11690;51.716;23.066;2023-05-10T03:21:59;3.08;;;1.60;;
23044;SDS011;11690;51.716;23.066;2023-05-10T03:24:31;2.70;;;1.60;;
23044;SDS011;11690;51.716;23.066;2023-05-10T03:26:59;3.25;;;1.77;;
23044;SDS011;11690;51.716;23.066;2023-05-10T03:29:30;4.20;;;1.83;;
23044;SDS011;11690;51.716;23.066;2023-05-10T03:31:58;3.15;;;1.83;;
23044;SDS011;11690;51.716;23.066;2023-05-10T03:34:29;2.60;;;1.48;;
23044;SDS011;11690;51.716;23.066;2023-05-10T03:36:57;2.05;;;1.60;;
23044;SDS011;11690;51.716;23.066;2023-05-10T03:39:27;3.33;;;1.67;;
23044;SDS011;11690;51.716;23.066;2023-05-10T03:41:57;3.15;;;1.80;;
23044;SDS011;11690;51.716;23.066;2023-05-10T03:44:25;2.53;;;1.52;;
23044;SDS011;11690;51.716;23.066;2023-05-10T03:46:52;2.58;;;1.80;;
23044;SDS011;11690;51.716;23.066;2023-05-10T03:49:19;2.08;;;1.60;;
23044;SDS011;11690;51.716;23.066;2023-05-10T03:51:47;3.70;;;1.70;;
23044;SDS011;11690;51.716;23.066;2023-05-10T03:54:15;1.88;;;1.48;;
23044;SDS011;11690;51.716;23.066;2023-05-10T03:56:42;2.38;;;1.48;;
23044;SDS011;11690;51.716;23.066;2023-05-10T03:59:09;2.60;;;1.73;;
23044;SDS011;11690;51.716;23.066;2023-05-10T04:01:36;2.92;;;1.88;;
23044;SDS011;11690;51.716;23.066;2023-05-10T04:04:03;2.10;;;1.60;;
23044;SDS011;11690;51.716;23.066;2023-05-10T04:06:31;2.53;;;1.60;;
23044;SDS011;11690;51.716;23.066;2023-05-10T04:08:58;1.70;;;1.40;;
23044;SDS011;11690;51.716;23.066;2023-05-10T04:11:26;2.47;;;1.70;;
23044;SDS011;11690;51.716;23.066;2023-05-10T04:13:54;2.10;;;1.70;;
23044;SDS011;11690;51.716;23.066;2023-05-10T04:16:21;2.00;;;1.60;;
23044;SDS011;11690;51.716;23.066;2023-05-10T04:18:49;2.50;;;2.00;;
23044;SDS011;11690;51.716;23.066;2023-05-10T04:21:16;2.55;;;1.52;;
23044;SDS011;11690;51.716;23.066;2023-05-10T04:23:43;1.95;;;1.67;;
23044;SDS011;11690;51.716;23.066;2023-05-10T04:26:10;5.32;;;2.15;;
23044;SDS011;11690;51.716;23.066;2023-05-10T04:28:37;9.02;;;3.03;;
23044;SDS011;11690;51.716;23.066;2023-05-10T04:31:05;3.95;;;1.73;;
23044;SDS011;11690;51.716;23.066;2023-05-10T04:33:34;8.43;;;3.10;;
23044;SDS011;11690;51.716;23.066;2023-05-10T04:36:02;8.40;;;3.53;;
23044;SDS011;11690;51.716;23.066;2023-05-10T04:38:30;13.07;;;4.20;;
23044;SDS011;11690;51.716;23.066;2023-05-10T04:41:07;6.95;;;2.55;;
23044;SDS011;11690;51.716;23.066;2023-05-10T04:43:35;6.50;;;2.97;;
23044;SDS011;11690;51.716;23.066;2023-05-10T04:46:03;3.22;;;2.00;;
23044;SDS011;11690;51.716;23.066;2023-05-10T04:48:31;2.00;;;1.63;;
23044;SDS011;11690;51.716;23.066;2023-05-10T04:50:57;3.67;;;2.15;;
23044;SDS011;11690;51.716;23.066;2023-05-10T04:53:25;2.67;;;1.95;;
23044;SDS011;11690;51.716;23.066;2023-05-10T04:55:52;6.07;;;2.00;;
23044;SDS011;11690;51.716;23.066;2023-05-10T04:58:19;3.03;;;2.08;;
23044;SDS011;11690;51.716;23.066;2023-05-10T05:00:46;3.33;;;1.90;;
23044;SDS011;11690;51.716;23.066;2023-05-10T05:03:13;4.55;;;2.15;;
23044;SDS011;11690;51.716;23.066;2023-05-10T05:05:40;3.08;;;1.98;;
23044;SDS011;11690;51.716;23.066;2023-05-10T05:08:08;3.83;;;2.28;;
23044;SDS011;11690;51.716;23.066;2023-05-10T05:10:35;5.38;;;1.80;;
23044;SDS011;11690;51.716;23.066;2023-05-10T05:13:02;3.22;;;2.08;;
23044;SDS011;11690;51.716;23.066;2023-05-10T05:15:29;3.35;;;2.25;;
23044;SDS011;11690;51.716;23.066;2023-05-10T05:17:57;3.42;;;2.10;;
23044;SDS011;11690;51.716;23.066;2023-05-10T05:20:24;3.20;;;1.90;;
23044;SDS011;11690;51.716;23.066;2023-05-10T05:22:52;2.75;;;2.05;;
23044;SDS011;11690;51.716;23.066;2023-05-10T05:25:19;5.15;;;2.30;;
23044;SDS011;11690;51.716;23.066;2023-05-10T05:27:46;7.50;;;3.13;;
23044;SDS011;11690;51.716;23.066;2023-05-10T05:30:13;4.03;;;1.67;;
23044;SDS011;11690;51.716;23.066;2023-05-10T05:32:40;2.55;;;1.90;;
23044;SDS011;11690;51.716;23.066;2023-05-10T05:35:07;2.30;;;1.55;;
23044;SDS011;11690;51.716;23.066;2023-05-10T05:37:35;8.93;;;4.03;;
23044;SDS011;11690;51.716;23.066;2023-05-10T05:40:02;4.82;;;2.42;;
23044;SDS011;11690;51.716;23.066;2023-05-10T05:42:30;2.53;;;1.63;;
23044;SDS011;11690;51.716;23.066;2023-05-10T05:44:57;2.63;;;1.75;;
23044;SDS011;11690;51.716;23.066;2023-05-10T05:47:24;2.70;;;1.60;;
23044;SDS011;11690;51.716;23.066;2023-05-10T05:49:51;3.05;;;1.90;;
23044;SDS011;11690;51.716;23.066;2023-05-10T05:52:19;3.47;;;1.77;;
23044;SDS011;11690;51.716;23.066;2023-05-10T05:54:45;3.90;;;1.60;;
23044;SDS011;11690;51.716;23.066;2023-05-10T05:57:13;7.32;;;3.60;;
23044;SDS011;11690;51.716;23.066;2023-05-10T05:59:40;4.20;;;2.05;;
23044;SDS011;11690;51.716;23.066;2023-05-10T06:02:10;5.45;;;2.55;;
23044;SDS011;11690;51.716;23.066;2023-05-10T06:04:38;14.05;;;4.88;;
23044;SDS011;11690;51.716;23.066;2023-05-10T06:07:08;8.05;;;3.78;;
23044;SDS011;11690;51.716;23.066;2023-05-10T06:09:35;1.90;;;1.50;;
23044;SDS011;11690;51.716;23.066;2023-05-10T06:12:02;3.47;;;2.05;;
23044;SDS011;11690;51.716;23.066;2023-05-10T06:14:29;3.38;;;2.13;;
23044;SDS011;11690;51.716;23.066;2023-05-10T06:16:57;3.42;;;1.77;;
23044;SDS011;11690;51.716;23.066;2023-05-10T06:19:26;3.92;;;1.48;;
23044;SDS011;11690;51.716;23.066;2023-05-10T06:21:54;3.60;;;1.70;;
23044;SDS011;11690;51.716;23.066;2023-05-10T06:24:21;2.83;;;1.55;;
23044;SDS011;11690;51.716;23.066;2023-05-10T06:26:48;2.30;;;1.70;;
23044;SDS011;11690;51.716;23.066;2023-05-10T06:29:16;3.05;;;1.63;;
23044;SDS011;11690;51.716;23.066;2023-05-10T06:31:44;2.60;;;1.40;;
23044;SDS011;11690;51.716;23.066;2023-05-10T06:34:11;1.70;;;1.20;;
23044;SDS011;11690;51.716;23.066;2023-05-10T06:36:39;1.35;;;1.23;;
23044;SDS011;11690;51.716;23.066;2023-05-10T06:39:06;1.92;;;1.17;;
23044;SDS011;11690;51.716;23.066;2023-05-10T06:41:33;3.55;;;1.60;;
23044;SDS011;11690;51.716;23.066;2023-05-10T06:44:00;2.97;;;1.10;;
23044;SDS011;11690;51.716;23.066;2023-05-10T06:46:28;3.28;;;1.50;;
23044;SDS011;11690;51.716;23.066;2023-05-10T06:48:55;2.13;;;1.30;;
23044;SDS011;11690;51.716;23.066;2023-05-10T06:51:22;1.48;;;1.05;;
23044;SDS011;11690;51.716;23.066;2023-05-10T06:53:49;1.58;;;1.10;;
23044;SDS011;11690;51.716;23.066;2023-05-10T06:56:16;1.90;;;1.38;;
23044;SDS011;11690;51.716;23.066;2023-05-10T06:58:43;1.38;;;1.10;;
23044;SDS011;11690;51.716;23.066;2023-05-10T07:01:10;1.33;;;1.00;;
23044;SDS011;11690;51.716;23.066;2023-05-10T07:03:37;2.22;;;1.17;;
23044;SDS011;11690;51.716;23.066;2023-05-10T07:06:05;2.35;;;1.10;;
23044;SDS011;11690;51.716;23.066;2023-05-10T07:08:44;1.60;;;1.15;;
23044;SDS011;11690;51.716;23.066;2023-05-10T07:11:11;2.88;;;1.15;;
23044;SDS011;11690;51.716;23.066;2023-05-10T07:13:38;2.67;;;1.30;;
23044;SDS011;11690;51.716;23.066;2023-05-10T07:16:08;1.10;;;1.00;;
23044;SDS011;11690;51.716;23.066;2023-05-10T07:18:35;1.70;;;1.15;;
23044;SDS011;11690;51.716;23.066;2023-05-10T07:21:02;1.15;;;0.90;;
23044;SDS011;11690;51.716;23.066;2023-05-10T07:23:29;1.90;;;1.13;;
23044;SDS011;11690;51.716;23.066;2023-05-10T07:25:57;1.80;;;1.00;;
23044;SDS011;11690;51.716;23.066;2023-05-10T07:28:24;1.33;;;0.82;;
23044;SDS011;11690;51.716;23.066;2023-05-10T07:30:51;3.22;;;0.85;;
23044;SDS011;11690;51.716;23.066;2023-05-10T07:33:18;1.13;;;0.90;;
23044;SDS011;11690;51.716;23.066;2023-05-10T07:35:45;1.80;;;1.30;;
23044;SDS011;11690;51.716;23.066;2023-05-10T07:38:12;1.17;;;1.00;;
23044;SDS011;11690;51.716;23.066;2023-05-10T07:40:40;1.63;;;1.10;;
23044;SDS011;11690;51.716;23.066;2023-05-10T07:43:06;1.00;;;0.90;;
23044;SDS011;11690;51.716;23.066;2023-05-10T07:45:34;1.55;;;0.98;;
23044;SDS011;11690;51.716;23.066;2023-05-10T07:48:01;1.95;;;1.00;;
23044;SDS011;11690;51.716;23.066;2023-05-10T07:50:28;1.52;;;0.82;;
23044;SDS011;11690;51.716;23.066;2023-05-10T07:52:55;1.27;;;0.82;;
23044;SDS011;11690;51.716;23.066;2023-05-10T07:55:22;1.27;;;1.00;;
23044;SDS011;11690;51.716;23.066;2023-05-10T07:57:49;1.00;;;0.90;;
23044;SDS011;11690;51.716;23.066;2023-05-10T08:00:17;1.10;;;1.00;;
23044;SDS011;11690;51.716;23.066;2023-05-10T08:02:45;1.15;;;0.80;;
23044;SDS011;11690;51.716;23.066;2023-05-10T08:05:13;1.17;;;0.80;;
23044;SDS011;11690;51.716;23.066;2023-05-10T08:07:41;1.27;;;0.90;;
23044;SDS011;11690;51.716;23.066;2023-05-10T08:10:09;1.73;;;0.80;;
23044;SDS011;11690;51.716;23.066;2023-05-10T08:12:37;1.92;;;0.82;;
23044;SDS011;11690;51.716;23.066;2023-05-10T08:15:05;1.95;;;1.20;;
23044;SDS011;11690;51.716;23.066;2023-05-10T08:17:33;1.15;;;0.75;;
23044;SDS011;11690;51.716;23.066;2023-05-10T08:20:01;1.30;;;0.90;;
23044;SDS011;11690;51.716;23.066;2023-05-10T08:22:28;1.20;;;1.08;;
23044;SDS011;11690;51.716;23.066;2023-05-10T08:24:55;0.77;;;0.77;;
23044;SDS011;11690;51.716;23.066;2023-05-10T08:27:22;2.25;;;0.98;;
23044;SDS011;11690;51.716;23.066;2023-05-10T08:29:49;0.95;;;0.80;;
23044;SDS011;11690;51.716;23.066;2023-05-10T08:32:17;2.08;;;1.00;;
23044;SDS011;11690;51.716;23.066;2023-05-10T08:34:44;0.75;;;0.75;;
23044;SDS011;11690;51.716;23.066;2023-05-10T08:37:11;2.78;;;0.73;;
23044;SDS011;11690;51.716;23.066;2023-05-10T08:39:40;2.70;;;1.33;;
23044;SDS011;11690;51.716;23.066;2023-05-10T08:42:07;3.50;;;1.10;;
23044;SDS011;11690;51.716;23.066;2023-05-10T08:44:35;1.15;;;0.80;;
23044;SDS011;11690;51.716;23.066;2023-05-10T08:47:06;2.08;;;0.90;;
23044;SDS011;11690;51.716;23.066;2023-05-10T08:49:36;1.52;;;1.10;;
23044;SDS011;11690;51.716;23.066;2023-05-10T08:52:04;1.63;;;0.90;;
23044;SDS011;11690;51.716;23.066;2023-05-10T08:54:33;0.63;;;0.63;;
23044;SDS011;11690;51.716;23.066;2023-05-10T08:57:01;1.92;;;0.95;;
23044;SDS011;11690;51.716;23.066;2023-05-10T08:59:28;1.30;;;1.05;;
23044;SDS011;11690;51.716;23.066;2023-05-10T09:01:57;2.00;;;0.80;;
23044;SDS011;11690;51.716;23.066;2023-05-10T09:04:25;1.75;;;0.90;;
23044;SDS011;11690;51.716;23.066;2023-05-10T09:06:53;0.95;;;0.80;;
23044;SDS011;11690;51.716;23.066;2023-05-10T09:09:20;1.20;;;0.95;;
23044;SDS011;11690;51.716;23.066;2023-05-10T09:11:48;1.13;;;0.80;;
23044;SDS011;11690;51.716;23.066;2023-05-10T09:14:15;1.00;;;0.90;;
23044;SDS011;11690;51.716;23.066;2023-05-10T09:16:42;1.52;;;0.90;;
23044;SDS011;11690;51.716;23.066;2023-05-10T09:19:10;1.63;;;1.10;;
23044;SDS011;11690;51.716;23.066;2023-05-10T09:21:37;1.75;;;1.00;;
23044;SDS011;11690;51.716;23.066;2023-05-10T09:24:07;0.65;;;0.65;;
23044;SDS011;11690;51.716;23.066;2023-05-10T09:26:35;1.70;;;1.00;;
23044;SDS011;11690;51.716;23.066;2023-05-10T09:29:03;1.50;;;0.80;;
23044;SDS011;11690;51.716;23.066;2023-05-10T09:31:49;1.40;;;0.90;;
23044;SDS011;11690;51.716;23.066;2023-05-10T09:34:30;1.23;;;0.98;;
23044;SDS011;11690;51.716;23.066;2023-05-10T09:37:01;2.95;;;0.82;;
23044;SDS011;11690;51.716;23.066;2023-05-10T09:39:33;1.85;;;0.88;;
23044;SDS011;11690;51.716;23.066;2023-05-10T09:42:04;1.30;;;0.55;;
23044;SDS011;11690;51.716;23.066;2023-05-10T09:44:33;1.15;;;0.70;;
23044;SDS011;11690;51.716;23.066;2023-05-10T09:47:01;2.65;;;0.75;;
23044;SDS011;11690;51.716;23.066;2023-05-10T09:49:29;0.80;;;0.80;;
23044;SDS011;11690;51.716;23.066;2023-05-10T09:52:03;1.25;;;0.75;;
23044;SDS011;11690;51.716;23.066;2023-05-10T09:54:31;1.13;;;0.80;;
23044;SDS011;11690;51.716;23.066;2023-05-10T09:56:58;1.15;;;0.95;;
23044;SDS011;11690;51.716;23.066;2023-05-10T09:59:26;0.80;;;0.70;;
23044;SDS011;11690;51.716;23.066;2023-05-10T10:01:57;0.73;;;0.70;;
23044;SDS011;11690;51.716;23.066;2023-05-10T10:04:25;1.40;;;0.65;;
23044;SDS011;11690;51.716;23.066;2023-05-10T10:07:02;0.80;;;0.60;;
23044;SDS011;11690;51.716;23.066;2023-05-10T10:09:31;1.02;;;0.70;;
23044;SDS011;11690;51.716;23.066;2023-05-10T10:11:59;0.80;;;0.60;;
23044;SDS011;11690;51.716;23.066;2023-05-10T10:14:27;1.15;;;0.93;;
23044;SDS011;11690;51.716;23.066;2023-05-10T10:16:54;1.60;;;0.70;;
23044;SDS011;11690;51.716;23.066;2023-05-10T10:19:34;0.82;;;0.70;;
23044;SDS011;11690;51.716;23.066;2023-05-10T10:22:03;0.75;;;0.75;;
23044;SDS011;11690;51.716;23.066;2023-05-10T10:24:30;1.40;;;0.80;;
23044;SDS011;11690;51.716;23.066;2023-05-10T10:26:59;2.20;;;0.82;;
23044;SDS011;11690;51.716;23.066;2023-05-10T10:29:39;0.60;;;0.52;;
23044;SDS011;11690;51.716;23.066;2023-05-10T10:32:59;2.35;;;1.15;;
23044;SDS011;11690;51.716;23.066;2023-05-10T10:35:22;1.23;;;0.90;;
23044;SDS011;11690;51.716;23.066;2023-05-10T10:37:50;2.08;;;0.95;;
23044;SDS011;11690;51.716;23.066;2023-05-10T10:40:30;2.47;;;0.88;;
23044;SDS011;11690;51.716;23.066;2023-05-10T10:49:25;0.73;;;0.60;;
23044;SDS011;11690;51.716;23.066;2023-05-10T10:51:37;0.90;;;0.60;;
23044;SDS011;11690;51.716;23.066;2023-05-10T10:54:10;3.33;;;0.52;;
23044;SDS011;11690;51.716;23.066;2023-05-10T10:56:38;1.08;;;0.75;;
23044;SDS011;11690;51.716;23.066;2023-05-10T10:59:05;1.15;;;0.63;;
23044;SDS011;11690;51.716;23.066;2023-05-10T11:01:33;0.52;;;0.52;;
23044;SDS011;11690;51.716;23.066;2023-05-10T11:06:32;1.10;;;0.80;;
23044;SDS011;11690;51.716;23.066;2023-05-10T11:09:07;1.40;;;0.90;;
23044;SDS011;11690;51.716;23.066;2023-05-10T11:11:35;1.00;;;0.60;;
23044;SDS011;11690;51.716;23.066;2023-05-10T11:14:04;7.70;;;1.23;;
23044;SDS011;11690;51.716;23.066;2023-05-10T11:16:41;1.30;;;1.13;;
23044;SDS011;11690;51.716;23.066;2023-05-10T11:19:16;0.70;;;0.70;;
23044;SDS011;11690;51.716;23.066;2023-05-10T11:21:50;1.65;;;0.88;;
23044;SDS011;11690;51.716;23.066;2023-05-10T11:24:19;0.80;;;0.80;;
23044;SDS011;11690;51.716;23.066;2023-05-10T11:26:49;2.10;;;0.70;;
23044;SDS011;11690;51.716;23.066;2023-05-10T11:29:17;0.80;;;0.70;;
23044;SDS011;11690;51.716;23.066;2023-05-10T11:31:45;1.48;;;0.90;;
23044;SDS011;11690;51.716;23.066;2023-05-10T11:34:26;1.42;;;0.60;;
23044;SDS011;11690;51.716;23.066;2023-05-10T11:37:00;1.20;;;0.80;;
23044;SDS011;11690;51.716;23.066;2023-05-10T11:39:27;1.10;;;0.70;;
23044;SDS011;11690;51.716;23.066;2023-05-10T11:41:56;0.60;;;0.50;;
23044;SDS011;11690;51.716;23.066;2023-05-10T11:44:23;0.90;;;0.80;;
23044;SDS011;11690;51.716;23.066;2023-05-10T11:46:58;1.02;;;0.85;;
23044;SDS011;11690;51.716;23.066;2023-05-10T11:49:28;1.13;;;0.80;;
23044;SDS011;11690;51.716;23.066;2023-05-10T11:52:08;0.70;;;0.70;;
23044;SDS011;11690;51.716;23.066;2023-05-10T11:54:35;1.00;;;0.70;;
23044;SDS011;11690;51.716;23.066;2023-05-10T11:57:03;1.30;;;0.70;;
23044;SDS011;11690;51.716;23.066;2023-05-10T11:59:30;1.00;;;0.70;;
23044;SDS011;11690;51.716;23.066;2023-05-10T12:01:57;1.58;;;1.00;;
23044;SDS011;11690;51.716;23.066;2023-05-10T12:04:24;0.63;;;0.60;;
23044;SDS011;11690;51.716;23.066;2023-05-10T12:06:52;0.88;;;0.77;;
23044;SDS011;11690;51.716;23.066;2023-05-10T12:09:19;2.40;;;0.90;;
23044;SDS011;11690;51.716;23.066;2023-05-10T12:12:02;1.70;;;0.90;;
23044;SDS011;11690;51.716;23.066;2023-05-10T12:14:29;1.10;;;0.90;;
23044;SDS011;11690;51.716;23.066;2023-05-10T12:17:02;0.88;;;0.75;;
23044;SDS011;11690;51.716;23.066;2023-05-10T12:19:36;2.35;;;1.30;;
23044;SDS011;11690;51.716;23.066;2023-05-10T12:22:04;1.13;;;0.80;;
23044;SDS011;11690;51.716;23.066;2023-05-10T12:24:35;0.80;;;0.63;;
23044;SDS011;11690;51.716;23.066;2023-05-10T12:27:05;0.80;;;0.55;;
23044;SDS011;11690;51.716;23.066;2023-05-10T12:29:34;1.27;;;0.70;;
23044;SDS011;11690;51.716;23.066;2023-05-10T12:32:02;0.93;;;0.70;;
23044;SDS011;11690;51.716;23.066;2023-05-10T12:34:30;1.13;;;0.68;;
23044;SDS011;11690;51.716;23.066;2023-05-10T12:36:58;1.48;;;0.93;;
23044;SDS011;11690;51.716;23.066;2023-05-10T12:39:37;1.48;;;0.75;;
23044;SDS011;11690;51.716;23.066;2023-05-10T12:42:05;1.75;;;0.90;;
23044;SDS011;11690;51.716;23.066;2023-05-10T12:44:32;1.23;;;0.75;;
23044;SDS011;11690;51.716;23.066;2023-05-10T12:47:00;1.40;;;0.77;;
23044;SDS011;11690;51.716;23.066;2023-05-10T12:49:27;0.73;;;0.50;;
23044;SDS011;11690;51.716;23.066;2023-05-10T12:51:54;1.00;;;0.88;;
23044;SDS011;11690;51.716;23.066;2023-05-10T12:54:21;1.65;;;0.90;;
23044;SDS011;11690;51.716;23.066;2023-05-10T12:56:48;1.10;;;0.70;;
23044;SDS011;11690;51.716;23.066;2023-05-10T12:59:15;3.35;;;0.93;;
23044;SDS011;11690;51.716;23.066;2023-05-10T13:01:43;0.98;;;0.77;;
23044;SDS011;11690;51.716;23.066;2023-05-10T13:04:10;0.88;;;0.70;;
23044;SDS011;11690;51.716;23.066;2023-05-10T13:06:38;0.75;;;0.70;;
23044;SDS011;11690;51.716;23.066;2023-05-10T13:09:05;0.75;;;0.63;;
23044;SDS011;11690;51.716;23.066;2023-05-10T13:11:32;0.80;;;0.70;;
23044;SDS011;11690;51.716;23.066;2023-05-10T13:14:00;1.50;;;0.70;;
23044;SDS011;11690;51.716;23.066;2023-05-10T13:16:27;0.77;;;0.70;;
23044;SDS011;11690;51.716;23.066;2023-05-10T13:18:54;0.80;;;0.80;;
23044;SDS011;11690;51.716;23.066;2023-05-10T13:21:22;1.60;;;0.80;;
23044;SDS011;11690;51.716;23.066;2023-05-10T13:23:51;1.13;;;0.65;;
23044;SDS011;11690;51.716;23.066;2023-05-10T13:26:19;1.08;;;0.75;;
23044;SDS011;11690;51.716;23.066;2023-05-10T13:28:46;0.70;;;0.70;;
23044;SDS011;11690;51.716;23.066;2023-05-10T13:31:13;0.65;;;0.60;;
23044;SDS011;11690;51.716;23.066;2023-05-10T13:33:40;1.88;;;0.60;;
23044;SDS011;11690;51.716;23.066;2023-05-10T13:36:08;0.82;;;0.70;;
23044;SDS011;11690;51.716;23.066;2023-05-10T13:38:35;0.45;;;0.45;;
23044;SDS011;11690;51.716;23.066;2023-05-10T13:41:02;0.90;;;0.70;;
23044;SDS011;11690;51.716;23.066;2023-05-10T13:43:29;2.47;;;1.08;;
23044;SDS011;11690;51.716;23.066;2023-05-10T13:45:57;1.40;;;0.85;;
23044;SDS011;11690;51.716;23.066;2023-05-10T13:48:24;2.20;;;0.93;;
23044;SDS011;11690;51.716;23.066;2023-05-10T13:50:51;0.75;;;0.70;;
23044;SDS011;11690;51.716;23.066;2023-05-10T13:53:18;1.23;;;0.90;;
23044;SDS011;11690;51.716;23.066;2023-05-10T13:55:46;2.95;;;0.98;;
23044;SDS011;11690;51.716;23.066;2023-05-10T13:58:13;1.35;;;0.90;;
23044;SDS011;11690;51.716;23.066;2023-05-10T14:00:41;1.00;;;0.60;;
23044;SDS011;11690;51.716;23.066;2023-05-10T14:03:08;1.67;;;0.98;;
23044;SDS011;11690;51.716;23.066;2023-05-10T14:05:38;1.38;;;0.90;;
23044;SDS011;11690;51.716;23.066;2023-05-10T14:08:05;2.58;;;1.00;;
23044;SDS011;11690;51.716;23.066;2023-05-10T14:10:32;1.20;;;0.80;;
23044;SDS011;11690;51.716;23.066;2023-05-10T14:12:59;1.98;;;0.90;;
23044;SDS011;11690;51.716;23.066;2023-05-10T14:15:27;0.82;;;0.80;;
23044;SDS011;11690;51.716;23.066;2023-05-10T14:17:53;1.27;;;0.80;;
23044;SDS011;11690;51.716;23.066;2023-05-10T14:20:21;1.15;;;0.77;;
23044;SDS011;11690;51.716;23.066;2023-05-10T14:22:48;1.00;;;0.70;;
23044;SDS011;11690;51.716;23.066;2023-05-10T14:25:15;0.80;;;0.70;;
23044;SDS011;11690;51.716;23.066;2023-05-10T14:27:43;1.13;;;0.80;;
23044;SDS011;11690;51.716;23.066;2023-05-10T14:30:10;0.70;;;0.60;;
23044;SDS011;11690;51.716;23.066;2023-05-10T14:32:38;1.60;;;0.70;;
23044;SDS011;11690;51.716;23.066;2023-05-10T14:35:06;1.13;;;0.85;;
23044;SDS011;11690;51.716;23.066;2023-05-10T14:37:36;0.95;;;0.80;;
23044;SDS011;11690;51.716;23.066;2023-05-10T14:40:03;1.38;;;0.80;;
23044;SDS011;11690;51.716;23.066;2023-05-10T14:42:33;1.02;;;0.80;;
23044;SDS011;11690;51.716;23.066;2023-05-10T14:45:00;1.58;;;0.80;;
23044;SDS011;11690;51.716;23.066;2023-05-10T14:47:27;2.05;;;0.63;;
23044;SDS011;11690;51.716;23.066;2023-05-10T14:49:55;1.98;;;0.80;;
23044;SDS011;11690;51.716;23.066;2023-05-10T14:52:23;3.17;;;0.80;;
23044;SDS011;11690;51.716;23.066;2023-05-10T14:54:51;0.70;;;0.60;;
23044;SDS011;11690;51.716;23.066;2023-05-10T14:57:19;1.15;;;0.80;;
23044;SDS011;11690;51.716;23.066;2023-05-10T14:59:46;1.13;;;0.85;;
23044;SDS011;11690;51.716;23.066;2023-05-10T15:02:15;1.70;;;0.80;;
23044;SDS011;11690;51.716;23.066;2023-05-10T15:04:44;0.98;;;0.80;;
23044;SDS011;11690;51.716;23.066;2023-05-10T15:07:12;1.05;;;0.73;;
23044;SDS011;11690;51.716;23.066;2023-05-10T15:09:42;1.48;;;1.17;;